Latest Weather Observations for Jacup

IDW60801

Issued at 1:02 pm WST Tuesday 30 June 2015 (issued every 30 minutes, with the page automatically refreshed every 10 minutes)

About weather observations | Map of weather stations | Latest weather observations for WA | Other Formats
Station Details ID: 010905 Name: JACUP Lat: -33.89 Lon: 119.11 Height: 305.0 m
Data from the previous 72 hours. | See also: Recent months at Jacup
Date/Time
WST
Temp
°C
App
Temp
°C
Dew
Point
Rel
Hum
%
Delta-T
°C
Wind Press
QNH
hPa
Press
MSL
hPa
Rain
since 9 am
mm
Dir
 
Spd
km/h
Gust
km/h
Spd
kts
Gust
kts
30/01:00pm 20.2 15.5 3.0 32 8.2 NNW 17 26 9 14 1023.5 1023.6 0.0
30/12:30pm 20.0 14.9 2.8 32 8.1 NW 19 30 10 16 1023.9 1024.0 0.0
30/12:00pm 18.9 14.2 3.1 35 7.4 NW 17 28 9 15 1024.5 1024.5 0.0
30/11:30am 17.8 12.8 3.7 39 6.7 NNW 19 28 10 15 1025.0 1025.0 0.0
30/11:00am 15.5 11.7 5.7 52 4.7 NNW 15 20 8 11 1025.3 1025.4 0.0
30/10:30am 15.2 11.2 5.1 51 4.8 N 15 22 8 12 1025.2 1025.2 0.0
30/10:00am 13.4 9.4 5.1 57 3.9 N 15 22 8 12 1025.5 1025.6 0.0
30/09:30am 11.1 6.6 4.3 63 3.1 N 17 24 9 13 1025.5 1025.6 0.0
30/09:00am 9.0 4.8 3.6 69 2.4 N 15 19 8 10 1025.6 1025.7 0.0
30/08:30am 8.6 4.3 3.0 68 2.4 N 15 22 8 12 1025.3 1025.4 0.0
30/08:00am 8.1 3.7 2.8 69 2.3 N 15 20 8 11 1025.5 1025.6 0.0
30/07:30am 6.3 1.4 2.2 75 1.7 N 17 20 9 11 1025.4 1025.5 0.0
30/07:00am 6.0 1.1 2.1 76 1.6 N 17 22 9 12 1025.3 1025.4 0.0
30/06:30am 6.0 1.1 2.1 76 1.6 N 17 20 9 11 1024.9 1024.9 0.0
30/06:00am 6.2 1.3 2.1 75 1.7 N 17 20 9 11 1024.4 1024.4 0.0
30/05:30am 7.1 2.2 2.2 71 2.1 N 17 20 9 11 1024.1 1024.2 0.0
30/05:00am 6.8 2.4 2.5 74 1.8 N 15 20 8 11 1024.2 1024.3 0.0
30/04:30am 7.1 2.3 2.4 72 2.0 N 17 20 9 11 1024.0 1024.1 0.0
30/04:00am 6.8 2.0 2.7 75 1.7 N 17 22 9 12 1024.2 1024.3 0.0
30/03:30am 6.0 1.2 2.6 79 1.4 N 17 20 9 11 1024.4 1024.4 0.0
30/03:00am 6.8 2.4 2.7 75 1.7 N 15 19 8 10 1024.5 1024.5 0.0
30/02:30am 7.1 2.7 2.8 74 1.8 N 15 20 8 11 1024.6 1024.6 0.0
30/02:00am 6.3 1.9 2.8 78 1.5 N 15 17 8 9 1024.1 1024.2 0.0
30/01:30am 5.6 1.6 2.6 81 1.3 N 13 17 7 9 1024.4 1024.4 0.0
30/01:00am 6.1 2.1 2.7 79 1.4 N 13 17 7 9 1024.5 1024.5 0.0
30/12:30am 5.9 1.9 2.9 81 1.3 N 13 15 7 8 1024.5 1024.5 0.0
30/12:00am 6.4 2.4 3.0 79 1.4 N 13 17 7 9 1025.0 1025.0 0.0
 
Date/Time
WST
Temp
°C
App
Temp
°C
Dew
Point
Rel
Hum
%
Delta-T
°C
Wind Press
QNH
hPa
Press
MSL
hPa
Rain
since 9 am
mm
Dir
 
Spd
km/h
Gust
km/h
Spd
kts
Gust
kts
29/11:30pm 7.6 3.7 3.3 74 1.9 N 13 17 7 9 1025.0 1025.0 0.0
29/11:00pm 8.2 4.4 3.7 73 2.0 N 13 17 7 9 1025.1 1025.1 0.0
29/10:30pm 6.8 3.2 3.2 78 1.5 N 11 15 6 8 1025.2 1025.2 0.0
29/10:00pm 7.8 3.9 3.5 74 1.9 N 13 15 7 8 1025.2 1025.2 0.0
29/09:30pm 9.7 5.5 3.9 67 2.6 N 15 17 8 9 1025.1 1025.1 0.0
29/09:00pm 10.4 6.3 4.5 67 2.7 N 15 19 8 10 1025.2 1025.2 0.0
29/08:30pm 8.4 4.7 4.2 75 1.9 N 13 15 7 8 1025.3 1025.4 0.0
29/08:00pm 7.8 4.4 4.0 77 1.7 N 11 11 6 6 1025.4 1025.5 0.0
29/07:30pm 7.1 4.1 3.9 80 1.4 N 9 11 5 6 1025.4 1025.5 0.0
29/07:00pm 9.6 6.3 4.8 72 2.2 NNW 11 15 6 8 1025.3 1025.4 0.0
29/06:30pm 7.5 4.4 3.6 76 1.7 NNW 9 11 5 6 1025.4 1025.5 0.0
29/06:00pm 9.3 6.8 3.7 68 2.5 NW 6 7 3 4 1025.4 1025.5 0.0
29/05:30pm 11.6 8.3 4.3 61 3.3 NW 11 13 6 7 1025.1 1025.1 0.0
29/05:00pm 13.0 11.2 5.4 60 3.6 NW 4 11 2 6 1024.9 1024.9 0.0
29/04:30pm 15.8 13.7 5.7 51 4.9 NW 6 11 3 6 1024.7 1024.7 0.0
29/04:00pm 17.2 13.9 4.5 43 6.1 NW 11 17 6 9 1024.7 1024.7 0.0
29/03:30pm 18.1 14.3 3.9 39 6.8 NW 13 20 7 11 1024.6 1024.6 0.0
29/03:00pm 18.6 14.1 4.0 38 7.0 NW 17 22 9 12 1024.6 1024.6 0.0
29/02:30pm 19.2 14.7 4.2 37 7.3 NNW 17 24 9 13 1024.8 1024.8 0.0
29/02:00pm 19.7 14.8 4.2 36 7.5 NW 19 26 10 14 1025.0 1025.0 0.0
29/01:30pm 19.1 14.2 4.1 37 7.3 NNW 19 30 10 16 1025.1 1025.1 0.0
29/01:00pm 18.2 13.2 4.4 40 6.6 NNW 20 30 11 16 1025.5 1025.6 0.0
29/12:30pm 17.8 12.8 4.4 41 6.5 NNW 20 28 11 15 1025.9 1026.0 0.0
29/12:00pm 17.1 11.7 4.4 43 6.1 NNW 22 35 12 19 1026.3 1026.4 0.0
29/11:30am 16.3 10.4 4.0 44 5.8 N 24 35 13 19 1026.8 1026.9 0.0
29/11:00am 15.3 10.3 4.7 49 5.0 N 20 32 11 17 1027.4 1027.5 0.0
29/10:30am 13.8 9.0 5.4 57 4.0 N 20 28 11 15 1027.8 1027.8 0.0
29/10:00am 12.0 6.9 5.9 66 2.9 N 22 33 12 18 1028.1 1028.2 0.0
29/09:30am 10.7 5.9 5.5 70 2.4 N 20 28 11 15 1028.0 1028.0 0.0
29/09:00am 9.0 4.4 5.6 79 1.6 N 19 26 10 14 1027.9 1027.9 0.2
29/08:30am 7.2 2.5 5.2 87 0.9 N 19 22 10 12 1028.0 1028.0 0.2
29/08:00am 5.8 1.3 4.4 91 0.6 N 17 22 9 12 1027.9 1027.9 0.2
29/07:30am 4.7 0.1 3.7 93 0.4 N 17 20 9 11 1027.5 1027.6 0.2
29/07:00am 4.6 0.0 3.7 94 0.4 N 17 20 9 11 1027.2 1027.3 0.2
29/06:30am 4.4 0.1 3.5 94 0.4 N 15 20 8 11 1027.3 1027.4 0.2
29/06:00am 4.7 0.1 3.8 94 0.4 N 17 19 9 10 1027.1 1027.2 0.2
29/05:30am 5.2 0.7 4.3 94 0.4 N 17 22 9 12 1027.2 1027.3 0.0
29/05:00am 5.2 0.7 4.3 94 0.4 N 17 20 9 11 1027.2 1027.3 0.0
29/04:30am 4.9 0.7 4.0 94 0.4 N 15 17 8 9 1027.3 1027.4 0.0
29/04:00am 5.3 1.6 4.4 94 0.4 N 13 17 7 9 1027.3 1027.4 0.0
29/03:30am 5.1 1.3 4.1 93 0.4 N 13 17 7 9 1027.4 1027.5 0.0
29/03:00am 5.6 1.9 4.6 93 0.4 N 13 17 7 9 1027.6 1027.7 0.0
29/02:30am 5.5 1.8 4.3 92 0.5 N 13 17 7 9 1027.9 1027.9 0.0
29/02:00am 5.5 1.8 4.3 92 0.5 N 13 15 7 8 1028.2 1028.3 0.0
29/01:30am 5.8 2.1 4.4 91 0.6 N 13 13 7 7 1028.5 1028.6 0.0
29/01:00am 6.0 2.4 4.8 92 0.5 N 13 15 7 8 1028.7 1028.8 0.0
29/12:30am 6.1 2.8 4.6 90 0.7 N 11 13 6 7 1028.6 1028.7 0.0
29/12:00am 6.5 2.5 4.7 88 0.8 NNE 15 17 8 9 1028.6 1028.7 0.0
 
Date/Time
WST
Temp
°C
App
Temp
°C
Dew
Point
Rel
Hum
%
Delta-T
°C
Wind Press
QNH
hPa
Press
MSL
hPa
Rain
since 9 am
mm
Dir
 
Spd
km/h
Gust
km/h
Spd
kts
Gust
kts
28/11:30pm 5.7 1.9 3.7 87 0.9 N 13 15 7 8 1028.9 1029.0 0.0
28/11:00pm 7.4 3.7 4.7 83 1.2 NNE 13 17 7 9 1029.2 1029.3 0.0
28/10:30pm 8.2 4.7 5.5 83 1.2 NE 13 19 7 10 1029.4 1029.5 0.0
28/10:00pm 5.2 1.7 3.5 89 0.7 NE 11 15 6 8 1029.7 1029.8 0.0
28/09:30pm 5.5 2.8 3.5 87 0.9 NE 7 9 4 5 1030.0 1030.1 0.0
28/09:00pm 6.6 3.3 4.4 86 1.0 ENE 11 11 6 6 1029.8 1029.9 0.0
28/08:30pm 7.2 4.0 4.9 85 1.0 ENE 11 11 6 6 1030.0 1030.1 0.0
28/08:00pm 7.2 3.9 4.7 84 1.1 ENE 11 13 6 7 1029.8 1029.9 0.0
28/07:30pm 7.3 4.3 4.3 81 1.3 ENE 9 11 5 6 1029.9 1030.0 0.0
28/07:00pm 8.1 6.2 4.7 79 1.5 NE 4 11 2 6 1029.8 1029.9 0.0
28/06:30pm 8.1 6.9 4.5 78 1.6 CALM 0 0 0 0 1029.7 1029.8 0.0
28/06:00pm 8.4 5.9 3.8 73 2.0 NE 6 9 3 5 1029.4 1029.5 0.0
28/05:30pm 9.3 6.8 4.9 74 2.0 NE 7 9 4 5 1029.3 1029.4 0.0
28/05:00pm 10.1 6.9 4.9 70 2.4 NE 11 13 6 7 1029.0 1029.1 0.0
28/04:30pm 11.8 9.2 6.1 68 2.7 NE 9 11 5 6 1029.1 1029.2 0.0
28/04:00pm 12.8 10.3 6.4 65 3.1 NE 9 13 5 7 1029.2 1029.3 0.0
28/03:30pm 13.7 10.3 6.1 60 3.7 ENE 13 17 7 9 1029.4 1029.5 0.0
28/03:00pm 14.1 10.1 6.5 60 3.7 NE 17 22 9 12 1029.5 1029.6 0.0
28/02:30pm 14.1 10.0 6.0 58 3.9 ENE 17 24 9 13 1029.6 1029.7 0.0
28/02:00pm 14.5 10.3 5.8 56 4.2 NE 17 24 9 13 1029.7 1029.8 0.0
28/01:30pm 14.5 10.8 6.1 57 4.1 NE 15 24 8 13 1029.9 1030.0 0.0
28/01:00pm 14.1 10.2 7.2 63 3.4 ENE 17 26 9 14 1030.2 1030.3 0.0
28/12:30pm 14.4 9.8 6.5 59 3.9 ENE 20 28 11 15 1030.6 1030.7 0.0
28/12:00pm 15.6 11.8 7.6 59 4.0 ENE 17 26 9 14 1031.1 1031.3 0.0
28/11:30am 14.4 10.2 7.5 63 3.5 NE 19 26 10 14 1031.7 1031.8 0.0
28/11:00am 13.9 9.8 7.9 67 3.0 NE 19 26 10 14 1032.2 1032.3 0.0
28/10:30am 13.4 9.0 7.6 68 2.9 NE 20 32 11 17 1032.3 1032.4 0.0
28/10:00am 12.9 8.5 7.4 69 2.7 NE 20 28 11 15 1032.5 1032.6 0.0
28/09:30am 11.9 8.5 7.6 75 2.1 NE 15 24 8 13 1032.7 1032.8 0.0
28/09:00am 11.4 7.6 7.7 78 1.8 NE 17 22 9 12 1032.8 1032.9 0.0
28/08:30am 10.6 7.6 7.7 82 1.4 NE 13 19 7 10 1032.9 1033.0 0.0
28/08:00am 8.3 5.2 7.4 94 0.4 NE 13 17 7 9 1032.9 1033.0 0.0
28/07:30am 5.6 2.7 4.4 92 0.5 NNE 9 9 5 5 1032.8 1032.9 0.0
28/07:00am 6.4 3.7 5.4 93 0.4 NNE 9 9 5 5 1032.7 1032.8 0.0
28/06:30am 6.5 3.7 5.0 90 0.7 NE 9 11 5 6 1032.4 1032.5 0.0
28/06:00am 7.8 4.8 5.9 88 0.9 NE 11 13 6 7 1032.2 1032.3 0.0
28/05:30am 9.0 6.2 7.0 87 1.0 NE 11 13 6 7 1032.1 1032.2 0.0
28/05:00am 9.5 7.2 7.3 86 1.0 NE 9 13 5 7 1032.2 1032.3 0.0
28/04:30am 9.6 7.3 7.4 86 1.1 NE 9 13 5 7 1032.1 1032.2 0.0
28/04:00am 9.6 7.2 7.2 85 1.1 NE 9 13 5 7 1032.3 1032.4 0.0
28/03:30am 9.8 7.1 7.4 85 1.2 NE 11 17 6 9 1032.4 1032.5 0.0
28/03:00am 9.6 6.9 7.4 86 1.1 NE 11 13 6 7 1032.6 1032.7 0.0
28/02:30am 9.3 7.0 7.4 88 0.9 NE 9 13 5 7 1032.5 1032.6 0.0
28/02:00am 9.4 7.1 7.5 88 0.9 NE 9 11 5 6 1032.6 1032.7 0.0
28/01:30am 8.9 6.6 7.5 91 0.7 ENE 9 13 5 7 1032.5 1032.6 0.0
28/01:00am 7.9 5.7 6.4 90 0.7 ENE 7 9 4 5 1032.5 1032.6 0.0
28/12:30am 7.9 5.3 6.2 89 0.8 ENE 9 11 5 6 1032.6 1032.7 0.0
28/12:00am 8.8 6.0 6.8 87 0.9 NE 11 15 6 8 1032.7 1032.8 0.0
 
Date/Time
WST
Temp
°C
App
Temp
°C
Dew
Point
Rel
Hum
%
Delta-T
°C
Wind Press
QNH
hPa
Press
MSL
hPa
Rain
since 9 am
mm
Dir
 
Spd
km/h
Gust
km/h
Spd
kts
Gust
kts
27/11:30pm 8.7 5.8 6.5 86 1.0 E 11 15 6 8 1032.8 1032.9 0.0
27/11:00pm 10.3 7.3 7.5 83 1.3 E 13 17 7 9 1032.9 1033.0 0.0
27/10:30pm 10.6 7.6 7.7 82 1.4 E 13 15 7 8 1033.1 1033.2 0.0
27/10:00pm 10.5 7.9 7.7 83 1.4 E 11 13 6 7 1033.2 1033.3 0.0
27/09:30pm 10.6 8.4 7.8 83 1.4 E 9 11 5 6 1033.2 1033.3 0.0
27/09:00pm 10.8 8.2 7.9 82 1.4 ENE 11 15 6 8 1033.2 1033.3 0.0
27/08:30pm 10.8 8.2 7.9 82 1.4 ENE 11 15 6 8 1033.1 1033.2 0.0
27/08:00pm 10.8 8.2 7.9 82 1.4 ENE 11 13 6 7 1033.1 1033.2 0.0
27/07:30pm 11.1 9.3 8.0 81 1.5 ENE 7 11 4 6 1033.1 1033.2 0.0
27/07:00pm 11.3 9.0 7.6 78 1.8 ESE 9 13 5 7 1032.9 1033.0 0.0
27/06:30pm 11.7 9.1 7.8 77 1.9 ESE 11 15 6 8 1032.8 1032.9 0.0
27/06:00pm 11.7 9.2 8.0 78 1.8 ESE 11 17 6 9 1032.5 1032.6 0.0
27/05:30pm 12.1 9.1 7.8 75 2.1 ESE 13 17 7 9 1032.2 1032.3 0.0
27/05:00pm 12.3 9.0 8.0 75 2.1 ESE 15 19 8 10 1032.2 1032.3 0.0
27/04:30pm 12.8 9.8 7.7 71 2.5 ESE 13 17 7 9 1032.0 1032.1 0.0
27/04:00pm 13.2 10.2 7.6 69 2.8 ESE 13 17 7 9 1031.9 1032.0 0.0
27/03:30pm 13.5 10.5 7.5 67 3.0 ESE 13 19 7 10 1031.9 1032.0 0.0
27/03:00pm 13.8 10.7 7.1 64 3.3 ESE 13 20 7 11 1031.8 1031.9 0.0
27/02:30pm 14.1 11.4 7.4 64 3.3 ESE 11 17 6 9 1031.7 1031.8 0.0
27/02:00pm 14.4 11.7 7.5 63 3.4 E 11 15 6 8 1031.8 1031.9 0.0
27/01:30pm 14.5 11.4 7.3 62 3.6 E 13 19 7 10 1032.0 1032.1 0.0

Other Formats:

Comma delimited format used in spreadsheet applications
http://www.bom.gov.au/fwo/IDW60801/IDW60801.95636.axf

JavaScript Object Notation format (JSON) in row-major order
http://www.bom.gov.au/fwo/IDW60801/IDW60801.95636.json